Time;durP1;ratioP1;P1;durP2;ratioP2;P2;SDS_P1;SDS_P2;PMS_P1;PMS_P2;Temp;Humidity;BMP_temperature;BMP_pressure;BME280_temperature;BME280_humidity;BME280_pressure;Samples;Min_cycle;Max_cycle;Signal;HPM_P1;HPM_P2
2022/05/08 00:00:55;;;;;;;;;;;;;;;12.89;76.88;93071.84;2059036;69;20508;-70
2022/05/08 00:03:21;;;;;;;;;;;;;;;12.91;76.25;93069.84;2058908;69;20118;-71
2022/05/08 00:05:46;;;;;;;;;;;;;;;13.01;75.82;93069.72;2058710;69;20061;-71
2022/05/08 00:08:12;;;;;;;;;;;;;;;13.06;74.84;93070.69;2058685;69;20101;-69
2022/05/08 00:10:40;;;;;;;;;;;;;;;13.21;74.60;93070.16;2059017;69;20565;-69
2022/05/08 00:13:06;;;;;;;;;;;;;;;13.35;73.30;93075.91;2058992;69;20514;-70
2022/05/08 00:15:31;;;;;;;;;;;;;;;13.37;73.18;93064.69;2058799;69;20062;-70
2022/05/08 00:17:57;;;;;;;;;;;;;;;13.27;73.18;93064.84;2058842;69;20077;-70
2022/05/08 00:20:24;;;;;;;;;;;;;;;13.29;72.70;93059.34;2071842;69;20428;-70
2022/05/08 00:22:49;;;;;;;;;;;;;;;13.20;74.20;93069.41;2058783;69;20051;-71
2022/05/08 00:25:15;;;;;;;;;;;;;;;12.71;77.00;93069.41;2059136;69;20053;-71
2022/05/08 00:27:40;;;;;;;;;;;;;;;12.69;77.73;93071.38;2071886;69;20062;-69
2022/05/08 00:33:40;;;;;;;;;;;;;;;12.93;76.49;93066.44;2058732;69;20075;-69
2022/05/08 00:36:06;;;;;;;;;;;;;;;12.71;77.91;93057.38;2058614;69;20471;-70
2022/05/08 00:38:31;;;;;;;;;;;;;;;13.02;75.71;93057.06;2058488;69;20057;-71
2022/05/08 00:40:57;;;;;;;;;;;;;;;13.11;75.11;93067.47;2071907;69;20065;-70
2022/05/08 00:43:31;;;;;;;;;;;;;;;13.15;74.94;93064.88;2059000;69;20066;-70
2022/05/08 00:45:56;;;;;;;;;;;;;;;13.04;75.45;93070.56;2058871;69;20161;-71
2022/05/08 00:48:22;;;;;;;;;;;;;;;13.25;74.07;93061.94;2058632;69;20476;-71
2022/05/08 00:54:16;;;;;;;;;;;;;;;12.76;77.69;93055.53;2058898;69;20098;-70
2022/05/08 01:00:10;;;;;;;;;;;;;;;12.84;77.13;93053.91;2058754;69;20087;-71
2022/05/08 01:02:36;;;;;;;;;;;;;;;12.88;77.53;93056.97;2058497;69;20441;-70
2022/05/08 01:05:02;;;;;;;;;;;;;;;12.90;76.79;93056.34;2071839;69;20500;-69
2022/05/08 01:07:28;;;;;;;;;;;;;;;13.05;74.44;93057.91;2058813;69;20077;-70
2022/05/08 01:09:54;;;;;;;;;;;;;;;13.23;74.04;93062.53;2058798;69;20050;-70
2022/05/08 01:12:21;;;;;;;;;;;;;;;13.26;73.45;93049.25;2071756;69;20050;-71
2022/05/08 01:14:47;;;;;;;;;;;;;;;13.37;71.10;93050.56;2071728;69;20505;-70
2022/05/08 01:17:14;;;;;;;;;;;;;;;13.00;75.50;93053.38;2058929;69;20050;-71
2022/05/08 01:19:39;;;;;;;;;;;;;;;12.76;77.15;93061.91;2072033;69;20062;-70
2022/05/08 01:22:05;;;;;;;;;;;;;;;12.82;76.34;93055.88;2058957;69;20678;-70
2022/05/08 01:24:30;;;;;;;;;;;;;;;13.05;74.58;93055.81;2059201;69;20080;-69
2022/05/08 01:26:56;;;;;;;;;;;;;;;12.96;73.31;93056.69;2059151;69;20081;-70
2022/05/08 01:29:21;;;;;;;;;;;;;;;13.00;73.83;93056.19;2059249;69;20093;-69
2022/05/08 01:31:47;;;;;;;;;;;;;;;13.14;72.97;93054.91;2059293;69;20168;-70
2022/05/08 01:34:13;;;;;;;;;;;;;;;12.78;76.21;93056.38;2072253;69;20424;-70
2022/05/08 01:36:40;;;;;;;;;;;;;;;12.81;76.72;93051.59;2058860;69;20062;-71
2022/05/08 01:39:06;;;;;;;;;;;;;;;12.90;77.04;93048.63;2059105;69;20057;-69
2022/05/08 01:41:31;;;;;;;;;;;;;;;12.84;76.85;93047.53;2059281;69;20053;-70
2022/05/08 01:43:57;;;;;;;;;;;;;;;12.71;78.15;93044.00;2072357;69;20046;-70
2022/05/08 01:46:22;;;;;;;;;;;;;;;12.69;77.88;93046.72;2072219;69;20102;-70
2022/05/08 01:48:48;;;;;;;;;;;;;;;13.00;75.66;93042.06;2059135;69;20077;-70
2022/05/08 01:51:16;;;;;;;;;;;;;;;13.06;74.36;93042.44;2059031;69;20099;-69
2022/05/08 01:53:42;;;;;;;;;;;;;;;13.11;74.09;93041.31;2072122;69;20060;-70
2022/05/08 01:56:08;;;;;;;;;;;;;;;13.05;73.62;93050.16;2058983;69;20070;-69
2022/05/08 01:58:33;;;;;;;;;;;;;;;13.07;74.61;93046.72;2059239;69;20083;-69
2022/05/08 02:01:01;;;;;;;;;;;;;;;13.05;73.39;93046.59;2059130;69;20082;-70
2022/05/08 02:03:27;;;;;;;;;;;;;;;12.76;76.68;93044.25;2058782;69;20513;-69
2022/05/08 02:05:52;;;;;;;;;;;;;;;12.82;76.51;93053.06;2059154;69;20141;-69
2022/05/08 02:08:18;;;;;;;;;;;;;;;12.89;76.06;93047.16;2059163;69;20072;-69
2022/05/08 02:10:46;;;;;;;;;;;;;;;12.90;75.06;93050.72;2059181;69;20054;-69
2022/05/08 02:13:12;;;;;;;;;;;;;;;12.78;76.80;93052.81;2072097;69;20057;-69
2022/05/08 02:15:38;;;;;;;;;;;;;;;12.70;77.59;93045.34;2072108;69;20073;-71
2022/05/08 02:18:07;;;;;;;;;;;;;;;12.56;78.39;93046.63;2059064;69;20153;-71
2022/05/08 02:20:33;;;;;;;;;;;;;;;12.89;75.92;93046.41;2059185;69;20092;-71
2022/05/08 02:22:59;;;;;;;;;;;;;;;13.06;74.16;93051.66;2059055;69;20485;-71
2022/05/08 02:25:24;;;;;;;;;;;;;;;13.07;74.57;93049.56;2059008;69;20146;-70
2022/05/08 02:27:51;;;;;;;;;;;;;;;13.03;74.89;93052.16;2058763;69;20062;-69
2022/05/08 02:30:20;;;;;;;;;;;;;;;13.04;74.49;93047.97;2072025;69;20138;-69
2022/05/08 02:32:46;;;;;;;;;;;;;;;13.02;74.60;93050.69;2058952;69;20123;-70
2022/05/08 02:35:12;;;;;;;;;;;;;;;13.20;71.98;93048.91;2059084;69;20060;-70
2022/05/08 02:37:38;;;;;;;;;;;;;;;13.17;72.81;93052.94;2059082;69;20070;-69
2022/05/08 02:40:05;;;;;;;;;;;;;;;13.07;73.91;93043.91;2058725;69;20053;-69
2022/05/08 02:42:34;;;;;;;;;;;;;;;12.97;75.54;93044.78;2059009;69;20049;-69
2022/05/08 02:45:00;;;;;;;;;;;;;;;13.06;74.14;93048.09;2072092;69;20057;-69
2022/05/08 02:47:25;;;;;;;;;;;;;;;12.81;76.33;93046.66;2058953;69;20050;-70
2022/05/08 02:49:50;;;;;;;;;;;;;;;13.05;74.30;93046.59;2059068;69;20046;-70
2022/05/08 02:52:16;;;;;;;;;;;;;;;13.10;74.08;93045.47;2059171;69;20053;-71
2022/05/08 03:00:55;;;;;;;;;;;;;;;12.60;78.24;93046.84;2059121;69;20057;-70
2022/05/08 03:03:20;;;;;;;;;;;;;;;12.61;78.36;93046.25;2072010;69;20050;-69
2022/05/08 03:05:47;;;;;;;;;;;;;;;12.91;76.01;93046.53;2069282;69;20050;-69
2022/05/08 03:08:15;;;;;;;;;;;;;;;13.03;73.72;93043.66;2058971;69;20098;-71
2022/05/08 03:13:25;;;;;;;;;;;;;;;12.70;76.57;93045.34;2058847;69;20114;-70
2022/05/08 03:15:50;;;;;;;;;;;;;;;12.95;75.77;93041.84;2072136;69;20066;-72
2022/05/08 03:18:16;;;;;;;;;;;;;;;12.90;76.70;93042.97;2059017;69;20049;-71
2022/05/08 03:20:41;;;;;;;;;;;;;;;12.96;76.15;93048.22;2059248;69;20137;-71
2022/05/08 03:23:07;;;;;;;;;;;;;;;12.97;75.28;93046.88;2059079;69;20056;-71
2022/05/08 03:25:32;;;;;;;;;;;;;;;12.64;77.32;93044.25;2059214;69;20052;-70
2022/05/08 03:27:58;;;;;;;;;;;;;;;12.67;78.35;93043.75;2058774;69;20077;-70
2022/05/08 03:30:25;;;;;;;;;;;;;;;12.89;75.66;93043.59;2069330;69;20486;-70
2022/05/08 03:32:51;;;;;;;;;;;;;;;12.98;74.08;93046.25;2058956;69;20080;-71
2022/05/08 03:35:16;;;;;;;;;;;;;;;12.88;76.33;93042.84;2059143;69;20110;-70
2022/05/08 03:37:42;;;;;;;;;;;;;;;12.72;77.97;93039.09;2059111;69;20099;-71
2022/05/08 03:40:07;;;;;;;;;;;;;;;12.93;74.03;93055.13;2059178;69;20489;-71
2022/05/08 03:42:33;;;;;;;;;;;;;;;12.82;76.60;93056.63;2059034;69;20100;-71
2022/05/08 03:44:58;;;;;;;;;;;;;;;12.85;76.70;93052.56;2059198;69;20054;-72
2022/05/08 03:47:24;;;;;;;;;;;;;;;12.32;79.50;93054.34;2058986;69;20566;-71
2022/05/08 03:49:50;;;;;;;;;;;;;;;12.57;78.28;93046.00;2059064;69;20042;-71
2022/05/08 03:52:15;;;;;;;;;;;;;;;12.36;79.99;93049.69;2059180;69;20086;-71
2022/05/08 03:54:40;;;;;;;;;;;;;;;12.75;77.88;93048.41;2058998;69;20046;-71
2022/05/08 03:57:06;;;;;;;;;;;;;;;12.64;76.90;93053.47;2058737;69;20050;-72
2022/05/08 03:59:31;;;;;;;;;;;;;;;12.43;77.51;93059.28;2058983;69;20041;-71
2022/05/08 04:01:57;;;;;;;;;;;;;;;12.59;78.28;93057.41;2059104;69;20062;-70
2022/05/08 04:04:22;;;;;;;;;;;;;;;12.46;78.34;93055.97;2058990;69;20053;-70
2022/05/08 04:06:48;;;;;;;;;;;;;;;12.36;80.14;93060.97;2059049;69;20465;-70
2022/05/08 04:09:15;;;;;;;;;;;;;;;12.58;79.06;93063.69;2059119;69;20150;-72
2022/05/08 04:11:41;;;;;;;;;;;;;;;12.76;76.65;93058.38;2058917;69;20046;-70
2022/05/08 04:14:06;;;;;;;;;;;;;;;12.50;78.04;93066.75;2059111;69;20047;-71
2022/05/08 04:16:32;;;;;;;;;;;;;;;12.67;77.77;93057.88;2058989;69;20056;-71
2022/05/08 04:18:57;;;;;;;;;;;;;;;12.79;76.99;93065.63;2058821;69;20136;-71
2022/05/08 04:21:23;;;;;;;;;;;;;;;12.50;78.26;93066.75;2058721;69;20046;-71
2022/05/08 04:26:33;;;;;;;;;;;;;;;12.85;75.10;93069.50;2059068;69;20115;-71
2022/05/08 04:28:59;;;;;;;;;;;;;;;12.91;74.85;93069.13;2058990;69;20057;-71
2022/05/08 04:31:27;;;;;;;;;;;;;;;12.87;76.24;93069.63;2058983;69;20045;-71
2022/05/08 04:33:52;;;;;;;;;;;;;;;12.79;76.59;93072.00;2058892;69;20110;-71
2022/05/08 04:36:18;;;;;;;;;;;;;;;12.79;76.88;93072.00;2058647;69;20089;-70
2022/05/08 04:38:43;;;;;;;;;;;;;;;12.91;76.23;93074.78;2058922;69;20142;-70
2022/05/08 04:41:09;;;;;;;;;;;;;;;12.80;77.32;93076.28;2058942;69;20089;-70
2022/05/08 04:43:34;;;;;;;;;;;;;;;12.96;76.39;93076.47;2058979;69;20064;-70
2022/05/08 04:46:00;;;;;;;;;;;;;;;12.93;75.99;93078.47;2059039;69;20072;-71
2022/05/08 04:48:25;;;;;;;;;;;;;;;13.05;74.89;93084.06;2059074;69;20082;-70
2022/05/08 04:50:51;;;;;;;;;;;;;;;12.98;73.42;93085.81;2059003;69;20053;-71
2022/05/08 04:53:16;;;;;;;;;;;;;;;12.94;75.33;93088.41;2058834;69;20421;-71
2022/05/08 04:55:41;;;;;;;;;;;;;;;12.88;75.41;93090.16;2058718;69;20069;-71
2022/05/08 04:58:08;;;;;;;;;;;;;;;12.80;74.40;93098.16;2058823;69;20049;-71
2022/05/08 05:00:34;;;;;;;;;;;;;;;12.92;75.98;93093.19;2071952;69;20099;-71
2022/05/08 05:02:59;;;;;;;;;;;;;;;12.77;77.05;93105.03;2058795;69;20050;-71
2022/05/08 05:05:25;;;;;;;;;;;;;;;12.56;79.02;93103.09;2058945;69;20061;-71
2022/05/08 05:07:50;;;;;;;;;;;;;;;12.53;79.27;93109.97;2058899;69;20061;-71
2022/05/08 05:10:16;;;;;;;;;;;;;;;12.65;78.73;93099.41;2058658;69;20093;-70
2022/05/08 05:12:41;;;;;;;;;;;;;;;12.40;80.51;93105.66;2058781;69;20487;-71
2022/05/08 05:15:07;;;;;;;;;;;;;;;12.70;79.47;93099.03;2058735;69;20050;-70
2022/05/08 05:17:32;;;;;;;;;;;;;;;12.92;77.70;93105.25;2058802;69;20081;-71
2022/05/08 05:19:58;;;;;;;;;;;;;;;12.95;76.62;93095.53;2058866;69;20168;-72
2022/05/08 05:22:24;;;;;;;;;;;;;;;13.16;75.52;93100.28;2058554;69;20046;-71
2022/05/08 05:24:50;;;;;;;;;;;;;;;13.22;75.63;93103.47;2058836;69;20413;-71
2022/05/08 05:27:16;;;;;;;;;;;;;;;13.05;76.00;93103.13;2058894;69;20065;-70
2022/05/08 05:33:15;;;;;;;;;;;;;;;13.00;76.33;93101.41;2058651;69;20084;-73
2022/05/08 05:35:41;;;;;;;;;;;;;;;13.04;76.56;93104.50;2058915;69;20054;-72
2022/05/08 05:38:07;;;;;;;;;;;;;;;13.12;76.68;93104.97;2071828;69;20054;-72
2022/05/08 05:40:32;;;;;;;;;;;;;;;12.96;76.31;93107.56;2058589;69;20053;-71
2022/05/08 05:42:58;;;;;;;;;;;;;;;12.83;79.15;93111.03;2058681;69;20502;-71
2022/05/08 05:45:23;;;;;;;;;;;;;;;12.77;77.77;93114.22;2071824;69;20050;-72
2022/05/08 05:47:49;;;;;;;;;;;;;;;13.09;76.46;93109.75;2058795;69;20482;-71
2022/05/08 05:50:15;;;;;;;;;;;;;;;13.29;75.48;93115.88;2058902;69;20058;-72
2022/05/08 05:52:40;;;;;;;;;;;;;;;13.45;75.04;93111.13;2058893;69;20564;-71
2022/05/08 05:55:06;;;;;;;;;;;;;;;13.40;75.22;93115.09;2058719;69;20458;-71
2022/05/08 05:57:36;;;;;;;;;;;;;;;13.48;75.32;93117.66;2066191;69;20437;-73
2022/05/08 06:00:06;;;;;;;;;;;;;;;13.36;74.49;93122.59;2058781;69;20471;-71
2022/05/08 06:02:37;;;;;;;;;;;;;;;13.00;76.61;93116.28;2058728;69;20489;-72
2022/05/08 06:05:04;;;;;;;;;;;;;;;13.21;74.37;93121.03;2058769;69;20057;-71
2022/05/08 06:07:36;;;;;;;;;;;;;;;12.96;77.36;93122.44;2059254;69;20076;-70
2022/05/08 06:10:03;;;;;;;;;;;;;;;13.22;76.50;93123.25;2059381;69;20042;-73
2022/05/08 06:12:28;;;;;;;;;;;;;;;13.40;75.75;93120.75;2059381;69;20116;-72
2022/05/08 06:14:54;;;;;;;;;;;;;;;13.29;75.84;93117.97;2059251;69;20042;-70
2022/05/08 06:17:19;;;;;;;;;;;;;;;13.20;75.46;93119.56;2059182;69;20170;-71
2022/05/08 06:19:45;;;;;;;;;;;;;;;13.32;75.73;93125.94;2059254;69;20054;-71
2022/05/08 06:22:10;;;;;;;;;;;;;;;13.54;74.06;93123.66;2058871;69;20054;-71
2022/05/08 06:24:36;;;;;;;;;;;;;;;13.69;72.69;93123.06;2059253;69;20046;-71
2022/05/08 06:27:02;;;;;;;;;;;;;;;13.71;73.09;93123.22;2059098;69;20559;-70
2022/05/08 06:29:27;;;;;;;;;;;;;;;13.74;72.69;93124.03;2059222;69;20113;-71
2022/05/08 06:31:53;;;;;;;;;;;;;;;13.93;70.85;93123.72;2059216;69;20054;-70
2022/05/08 06:34:19;;;;;;;;;;;;;;;14.15;70.61;93126.28;2059171;69;20066;-70
2022/05/08 06:36:44;;;;;;;;;;;;;;;14.30;70.38;93128.53;2058975;69;20054;-70
2022/05/08 06:39:10;;;;;;;;;;;;;;;14.51;68.19;93127.53;2059042;69;20497;-70
2022/05/08 06:41:36;;;;;;;;;;;;;;;14.27;71.37;93126.22;2059222;69;20161;-72
2022/05/08 06:44:02;;;;;;;;;;;;;;;14.56;69.61;93132.03;2059201;69;20046;-72
2022/05/08 06:46:31;;;;;;;;;;;;;;;14.53;70.53;93126.91;2059236;69;20049;-71
2022/05/08 06:48:57;;;;;;;;;;;;;;;14.36;69.73;93128.84;2059153;69;20050;-70
2022/05/08 06:51:22;;;;;;;;;;;;;;;14.28;71.16;93122.00;2059391;69;20040;-71
2022/05/08 06:53:48;;;;;;;;;;;;;;;14.30;71.16;93130.63;2059286;69;20098;-72
2022/05/08 06:56:15;;;;;;;;;;;;;;;14.02;71.37;93130.56;2059161;69;20050;-70
2022/05/08 07:01:42;;;;;;;;;;;;;;;13.57;74.53;93135.81;2059188;69;20064;-72
2022/05/08 07:04:09;;;;;;;;;;;;;;;14.25;71.91;93126.84;2059152;69;20050;-73
2022/05/08 07:06:38;;;;;;;;;;;;;;;14.19;70.98;93132.16;2071871;69;20085;-73
2022/05/08 07:09:04;;;;;;;;;;;;;;;14.11;70.93;93128.88;2059124;69;20556;-72
2022/05/08 07:11:30;;;;;;;;;;;;;;;14.31;70.82;93134.94;2059146;69;20062;-73
2022/05/08 07:13:56;;;;;;;;;;;;;;;14.70;69.12;93138.47;2059156;69;20052;-73
2022/05/08 07:16:21;;;;;;;;;;;;;;;14.78;67.08;93132.50;2059100;69;20193;-72
2022/05/08 07:18:47;;;;;;;;;;;;;;;15.07;67.36;93133.94;2059228;69;20042;-72
2022/05/08 07:21:12;;;;;;;;;;;;;;;15.07;67.50;93139.63;2059105;69;20046;-72
2022/05/08 07:23:38;;;;;;;;;;;;;;;14.52;69.68;93143.16;2059091;69;20544;-73
2022/05/08 07:26:03;;;;;;;;;;;;;;;14.82;68.22;93135.53;2059178;69;20561;-72
2022/05/08 07:28:29;;;;;;;;;;;;;;;14.67;67.82;93139.72;2072182;69;20110;-72
2022/05/08 07:30:55;;;;;;;;;;;;;;;14.89;67.87;93140.16;2059097;69;20508;-71
2022/05/08 07:33:20;;;;;;;;;;;;;;;15.17;66.36;93135.22;2058726;69;20050;-73
2022/05/08 07:38:31;;;;;;;;;;;;;;;15.49;65.53;93138.94;2059199;69;20562;-72
2022/05/08 07:40:57;;;;;;;;;;;;;;;15.54;66.10;93137.03;2059069;69;20398;-74
2022/05/08 07:43:23;;;;;;;;;;;;;;;15.10;66.78;93146.88;2059092;69;20058;-73
2022/05/08 07:45:48;;;;;;;;;;;;;;;15.41;66.19;93134.97;2059155;69;20142;-72
2022/05/08 07:48:16;;;;;;;;;;;;;;;15.47;64.54;93135.25;2059049;69;20059;-72
2022/05/08 07:50:41;;;;;;;;;;;;;;;15.20;65.53;93138.88;2059034;69;20057;-72
2022/05/08 07:53:07;;;;;;;;;;;;;;;15.49;65.18;93135.38;2059039;69;20061;-72
2022/05/08 07:55:32;;;;;;;;;;;;;;;15.49;65.30;93135.38;2059028;69;20394;-72
2022/05/08 07:57:58;;;;;;;;;;;;;;;15.15;65.82;93143.59;2072340;69;20158;-71
2022/05/08 08:00:23;;;;;;;;;;;;;;;15.34;65.61;93141.69;2059210;69;20050;-72
2022/05/08 08:02:49;;;;;;;;;;;;;;;15.80;64.23;93145.38;2058973;69;20046;-72
2022/05/08 08:05:14;;;;;;;;;;;;;;;15.95;63.45;93144.72;2059247;69;20137;-71
2022/05/08 08:11:10;;;;;;;;;;;;;;;16.44;63.20;93149.84;2059075;69;20520;-71
2022/05/08 08:13:36;;;;;;;;;;;;;;;16.31;61.92;93151.41;2059134;69;20117;-72
2022/05/08 08:16:05;;;;;;;;;;;;;;;16.42;61.67;93155.44;2059133;69;20090;-72
2022/05/08 08:18:31;;;;;;;;;;;;;;;16.30;61.67;93149.91;2058923;69;20053;-71
2022/05/08 08:20:56;;;;;;;;;;;;;;;16.44;61.44;93158.34;2059000;69;20046;-71
2022/05/08 08:23:22;;;;;;;;;;;;;;;16.67;60.25;93154.44;2058963;69;20062;-71
2022/05/08 08:25:47;;;;;;;;;;;;;;;16.45;60.11;93151.31;2059239;69;20199;-73
2022/05/08 08:28:13;;;;;;;;;;;;;;;15.72;62.98;93146.47;2071899;69;20062;-73
2022/05/08 08:30:38;;;;;;;;;;;;;;;16.50;61.41;93144.44;2059283;69;20085;-71
2022/05/08 08:33:04;;;;;;;;;;;;;;;16.81;60.44;93145.84;2058856;69;20046;-71
2022/05/08 08:35:30;;;;;;;;;;;;;;;16.96;60.44;93143.00;2058919;69;20162;-74
2022/05/08 08:37:55;;;;;;;;;;;;;;;17.22;59.64;93157.63;2058710;69;20049;-71
2022/05/08 08:40:21;;;;;;;;;;;;;;;17.32;59.76;93153.75;2058928;69;20118;-71
2022/05/08 08:42:48;;;;;;;;;;;;;;;17.08;59.29;93154.16;2058933;69;20058;-72
2022/05/08 08:48:03;;;;;;;;;;;;;;;17.74;58.85;93147.06;2071781;69;20432;-71
2022/05/08 08:50:28;;;;;;;;;;;;;;;17.75;58.75;93142.09;2058996;69;20057;-71
2022/05/08 08:56:22;;;;;;;;;;;;;;;17.00;57.89;93142.44;2058842;69;20119;-71
2022/05/08 08:58:47;;;;;;;;;;;;;;;17.30;57.71;93142.28;2059053;69;20065;-73
2022/05/08 09:01:16;;;;;;;;;;;;;;;17.50;56.93;93138.22;2058920;69;20500;-71
2022/05/08 09:03:41;;;;;;;;;;;;;;;17.66;55.81;93140.25;2058931;69;20103;-70
2022/05/08 09:06:08;;;;;;;;;;;;;;;17.88;54.21;93143.31;2059006;69;20050;-73
2022/05/08 09:12:15;;;;;;;;;;;;;;;17.91;53.77;93139.16;2058945;69;20048;-75
2022/05/08 09:14:41;;;;;;;;;;;;;;;17.85;54.18;93150.31;2058920;69;20508;-74
2022/05/08 09:17:06;;;;;;;;;;;;;;;17.66;54.64;93151.66;2058843;69;20050;-73
2022/05/08 09:19:40;;;;;;;;;;;;;;;17.85;54.82;93141.78;2058794;69;20053;-71
2022/05/08 09:22:17;;;;;;;;;;;;;;;17.92;53.79;93149.19;2058487;69;20126;-71
2022/05/08 09:24:50;;;;;;;;;;;;;;;18.08;53.68;93146.25;2058873;69;20056;-71
2022/05/08 09:27:17;;;;;;;;;;;;;;;17.89;51.78;93147.63;2058854;69;20050;-70
2022/05/08 09:29:43;;;;;;;;;;;;;;;18.19;53.29;93150.97;2058839;69;20050;-72
2022/05/08 09:32:09;;;;;;;;;;;;;;;18.48;53.41;93159.25;2058835;69;20077;-71
2022/05/08 09:34:53;;;;;;;;;;;;;;;18.90;53.24;93139.47;2058671;69;20050;-70
2022/05/08 09:37:19;;;;;;;;;;;;;;;19.16;50.59;93138.97;2058609;69;20086;-70
2022/05/08 09:39:44;;;;;;;;;;;;;;;19.16;50.68;93133.25;2058905;69;20057;-71
2022/05/08 09:42:36;;;;;;;;;;;;;;;19.22;50.34;93139.19;2059157;69;20042;-71
2022/05/08 09:45:07;;;;;;;;;;;;;;;19.12;50.26;93138.81;2058605;69;20042;-71
2022/05/08 09:47:47;;;;;;;;;;;;;;;19.11;50.39;93132.38;2059354;69;20041;-70
2022/05/08 09:50:14;;;;;;;;;;;;;;;19.39;50.39;93138.38;2059315;69;20193;-70
2022/05/08 09:52:40;;;;;;;;;;;;;;;19.14;50.37;93131.03;2059302;69;20054;-70
2022/05/08 09:55:09;;;;;;;;;;;;;;;19.25;51.10;93129.31;2059262;69;20145;-71
2022/05/08 09:57:34;;;;;;;;;;;;;;;19.12;49.38;93131.00;2059403;69;20072;-74
2022/05/08 10:00:01;;;;;;;;;;;;;;;18.91;49.65;93128.78;2059280;69;20402;-75
2022/05/08 10:02:38;;;;;;;;;;;;;;;19.28;50.92;93134.41;2059284;69;20135;-73
2022/05/08 10:05:04;;;;;;;;;;;;;;;19.69;50.23;93130.13;2059264;69;20050;-73
2022/05/08 10:07:31;;;;;;;;;;;;;;;19.17;49.04;93131.88;2072374;69;20137;-78
2022/05/08 10:19:16;;;;;;;;;;;;;;;20.12;48.20;93125.09;2059241;69;20050;-71
2022/05/08 10:22:03;;;;;;;;;;;;;;;20.41;46.14;93118.16;2072401;69;20093;-70
2022/05/08 10:24:33;;;;;;;;;;;;;;;19.75;47.74;93113.22;2059297;69;20594;-70
2022/05/08 10:27:14;;;;;;;;;;;;;;;19.11;49.71;93112.41;2059220;69;20061;-71
2022/05/08 10:29:40;;;;;;;;;;;;;;;20.67;47.66;93118.25;2059403;69;20074;-71
2022/05/08 10:32:13;;;;;;;;;;;;;;;20.34;46.05;93116.47;2059387;69;20073;-71
2022/05/08 10:34:39;;;;;;;;;;;;;;;19.97;46.39;93113.19;2059147;69;20070;-71
2022/05/08 10:37:11;;;;;;;;;;;;;;;20.80;44.59;93108.59;2059335;69;20060;-72
2022/05/08 10:39:43;;;;;;;;;;;;;;;22.37;43.39;93109.94;2059238;69;20050;-73
2022/05/08 10:42:39;;;;;;;;;;;;;;;23.03;40.90;93112.13;2059203;69;20062;-73
2022/05/08 10:45:04;;;;;;;;;;;;;;;23.47;41.68;93106.53;2057690;69;20094;-71
2022/05/08 10:47:33;;;;;;;;;;;;;;;22.19;41.45;93107.34;2059260;69;20050;-77
2022/05/08 10:50:03;;;;;;;;;;;;;;;22.84;41.08;93105.97;2072226;69;20049;-73
2022/05/08 10:52:30;;;;;;;;;;;;;;;24.74;40.47;93106.56;2058666;69;20493;-73
2022/05/08 10:54:59;;;;;;;;;;;;;;;23.59;38.74;93103.16;2058889;69;20534;-72
2022/05/08 10:57:28;;;;;;;;;;;;;;;22.83;39.88;93095.16;2058786;69;20050;-72
2022/05/08 10:59:53;;;;;;;;;;;;;;;22.48;40.84;93097.25;2059038;69;20085;-75
2022/05/08 11:02:38;;;;;;;;;;;;;;;22.46;41.55;93100.09;2058894;69;20169;-77
2022/05/08 11:05:03;;;;;;;;;;;;;;;23.60;41.01;93101.75;2058960;69;20062;-76
2022/05/08 11:07:29;;;;;;;;;;;;;;;24.15;36.29;93088.38;2059090;69;20081;-74
2022/05/08 11:10:00;;;;;;;;;;;;;;;28.83;31.26;93092.72;2058977;69;20077;-72
2022/05/08 11:12:25;;;;;;;;;;;;;;;29.77;30.31;93090.25;2058994;69;20050;-73
2022/05/08 11:15:08;;;;;;;;;;;;;;;24.75;36.03;93084.97;2058881;69;20085;-78
2022/05/08 11:17:33;;;;;;;;;;;;;;;26.66;32.93;93091.34;2058881;69;20502;-74
2022/05/08 11:19:59;;;;;;;;;;;;;;;27.02;32.76;93099.50;2058920;69;20070;-76
2022/05/08 11:22:25;;;;;;;;;;;;;;;24.65;34.46;93084.84;2072210;69;20085;-76
2022/05/08 11:24:50;;;;;;;;;;;;;;;24.92;36.13;93083.03;2059266;69;20089;-74
2022/05/08 11:27:16;;;;;;;;;;;;;;;23.94;38.07;93092.31;2072039;69;20133;-71
2022/05/08 11:29:48;;;;;;;;;;;;;;;24.25;38.62;93084.94;2058982;69;20148;-71
2022/05/08 11:38:26;;;;;;;;;;;;;;;24.76;36.01;93074.91;2059029;69;20111;-73
2022/05/08 11:40:52;;;;;;;;;;;;;;;25.97;35.65;93079.94;2059446;69;20094;-72
2022/05/08 11:43:36;;;;;;;;;;;;;;;25.49;35.43;93075.13;2060164;69;20046;-75
2022/05/08 11:49:31;;;;;;;;;;;;;;;25.75;37.63;93068.91;2058964;69;20049;-71
2022/05/08 11:52:01;;;;;;;;;;;;;;;25.42;38.03;93067.09;2059417;69;20046;-74
2022/05/08 11:54:30;;;;;;;;;;;;;;;25.41;38.67;93060.59;2059104;69;20042;-71
2022/05/08 11:57:14;;;;;;;;;;;;;;;24.78;38.40;93065.56;2058886;69;20042;-72
2022/05/08 11:59:40;;;;;;;;;;;;;;;24.13;36.86;93061.72;2058866;69;20093;-72
2022/05/08 12:02:06;;;;;;;;;;;;;;;24.42;38.02;93065.78;2058344;69;20065;-72
2022/05/08 12:04:33;;;;;;;;;;;;;;;24.09;37.75;93059.50;2058703;69;20483;-71
2022/05/08 12:07:02;;;;;;;;;;;;;;;24.93;38.28;93061.47;2058861;69;20172;-72
2022/05/08 12:09:29;;;;;;;;;;;;;;;24.39;37.00;93058.56;2058648;69;20093;-74
2022/05/08 12:11:54;;;;;;;;;;;;;;;26.65;34.14;93048.75;2071603;69;20054;-72
2022/05/08 12:14:30;;;;;;;;;;;;;;;28.30;33.49;93063.75;2058949;69;20082;-72
2022/05/08 12:17:01;;;;;;;;;;;;;;;27.31;31.94;93057.06;2058815;69;20057;-73
2022/05/08 12:19:26;;;;;;;;;;;;;;;26.51;35.39;93058.03;2058712;69;20478;-74
2022/05/08 12:21:52;;;;;;;;;;;;;;;26.50;34.06;93045.78;2058794;69;20065;-72
2022/05/08 12:24:17;;;;;;;;;;;;;;;26.09;35.58;93050.47;2058916;69;20394;-72
2022/05/08 12:26:43;;;;;;;;;;;;;;;24.09;36.21;93048.72;2058830;69;20070;-73
2022/05/08 12:29:16;;;;;;;;;;;;;;;24.14;37.77;93052.38;2071978;69;20046;-72
2022/05/08 12:31:41;;;;;;;;;;;;;;;25.00;37.47;93044.97;2058829;69;20046;-73
2022/05/08 12:34:10;;;;;;;;;;;;;;;27.51;34.55;93055.66;2058816;69;20054;-73
2022/05/08 12:36:36;;;;;;;;;;;;;;;27.81;33.48;93057.91;2058799;69;20093;-72
2022/05/08 12:39:02;;;;;;;;;;;;;;;27.50;32.63;93052.06;2058751;69;20093;-74
2022/05/08 12:41:27;;;;;;;;;;;;;;;26.21;33.91;93041.22;2058535;69;20053;-73
2022/05/08 12:43:52;;;;;;;;;;;;;;;25.97;34.89;93041.72;2072088;69;20054;-74
2022/05/08 12:46:18;;;;;;;;;;;;;;;25.62;35.53;93041.38;2058968;69;20093;-75
2022/05/08 12:48:43;;;;;;;;;;;;;;;25.41;36.09;93034.69;2058761;69;20550;-74
2022/05/08 12:51:12;;;;;;;;;;;;;;;25.29;35.58;93029.53;2058811;69;20504;-72
2022/05/08 12:53:41;;;;;;;;;;;;;;;23.70;36.43;93033.00;2058816;69;20046;-71
2022/05/08 12:56:07;;;;;;;;;;;;;;;24.52;37.28;93023.50;2071559;69;20093;-72
2022/05/08 13:01:17;;;;;;;;;;;;;;;28.23;31.89;93036.28;2058867;69;20612;-71
2022/05/08 13:03:43;;;;;;;;;;;;;;;29.27;29.33;93033.91;2058713;69;20140;-71
2022/05/08 13:06:08;;;;;;;;;;;;;;;27.47;30.17;93021.69;2058698;69;20062;-71
2022/05/08 13:08:33;;;;;;;;;;;;;;;25.46;33.25;93018.16;2058537;69;20137;-74
2022/05/08 13:11:02;;;;;;;;;;;;;;;25.67;33.46;93016.94;2058732;69;20074;-71
2022/05/08 13:13:30;;;;;;;;;;;;;;;28.53;31.42;93018.88;2058760;69;20405;-71
2022/05/08 13:15:57;;;;;;;;;;;;;;;31.97;27.16;93020.59;2058568;69;20057;-72
2022/05/08 13:18:22;;;;;;;;;;;;;;;30.27;26.86;93009.41;2058588;69;20050;-72
2022/05/08 13:20:48;;;;;;;;;;;;;;;26.90;31.19;93015.69;2071802;69;20077;-73
2022/05/08 13:23:13;;;;;;;;;;;;;;;27.51;30.36;93018.06;2058827;69;20417;-72
2022/05/08 13:25:39;;;;;;;;;;;;;;;26.61;30.51;92997.47;2058614;69;20121;-72
2022/05/08 13:28:04;;;;;;;;;;;;;;;25.01;32.29;93001.06;2058404;69;20050;-71
2022/05/08 13:30:29;;;;;;;;;;;;;;;23.98;33.47;93001.09;2058684;69;20118;-71
2022/05/08 13:32:56;;;;;;;;;;;;;;;22.79;37.12;92998.22;2058562;69;20478;-72
2022/05/08 13:35:22;;;;;;;;;;;;;;;23.61;36.00;92999.03;2068778;69;20050;-73
2022/05/08 13:37:47;;;;;;;;;;;;;;;23.62;35.39;92994.72;2058552;69;20046;-73
2022/05/08 13:40:13;;;;;;;;;;;;;;;22.95;37.04;93003.56;2058716;69;20053;-72
2022/05/08 13:46:06;;;;;;;;;;;;;;;21.35;38.14;92997.78;2058745;69;20046;-71
2022/05/08 13:48:32;;;;;;;;;;;;;;;21.46;38.03;92996.66;2058607;69;20050;-71
2022/05/08 13:50:58;;;;;;;;;;;;;;;21.25;39.15;92998.22;2071747;69;20046;-70
2022/05/08 13:53:26;;;;;;;;;;;;;;;21.70;38.75;93002.25;2071369;69;20520;-70
2022/05/08 13:55:54;;;;;;;;;;;;;;;21.68;40.12;93005.78;2058618;69;20054;-69